This is the latest recevied weather packets stored in our database for station/object WX7FGZ-3. If no packets are shown the sender has not sent any weather packets the latest 1 day(s).
| Time | Temp. | Humidity | Pressure | Rain* | Wind** | Luminosity | Snow |
|---|---|---|---|---|---|---|---|
| 1778083026 | 10.56° C | 52% | 1012.9 hPa | 0 mm | - | - | - |
| 1778081876 | 8.89° C | 56% | 1012.8 hPa | 0 mm | - | - | - |
| 1778081224 | 8.33° C | 59% | 1013 hPa | 0 mm | - | - | - |
| 1778080924 | 7.78° C | 60% | 1013.1 hPa | 0 mm | - | - | - |
| 1778080023 | 6.67° C | 69% | 1013 hPa | 0 mm | - | - | - |
| 1778077020 | 5° C | 73% | 1013.3 hPa | 0 mm | - | - | - |
| 1778075218 | 3.89° C | 74% | 1012.9 hPa | 0 mm | - | - | - |
| 1778074318 | 3.89° C | 75% | 1012.7 hPa | 0 mm | - | - | - |
| 1778073717 | 3.33° C | 76% | 1012.6 hPa | 0 mm | - | - | - |
| 1778072816 | 2.78° C | 78% | 1012.5 hPa | 0 mm | - | - | - |
| 1778071615 | 2.78° C | 78% | 1012.1 hPa | 0 mm | - | - | - |
| 1778071315 | 2.78° C | 78% | 1012 hPa | 0 mm | - | - | - |
| 1778071014 | 2.78° C | 78% | 1012 hPa | 0 mm | - | - | - |
| 1778069813 | 2.78° C | 77% | 1011.6 hPa | 0 mm | - | - | - |
| 1778069513 | 3.33° C | 77% | 1011.5 hPa | 0 mm | - | - | - |
| 1778065609 | 3.33° C | 77% | 1011.2 hPa | 0 mm | - | - | - |
| 1778064408 | 2.78° C | 79% | 1011 hPa | 0 mm | - | - | - |
| 1778064108 | 2.78° C | 79% | 1010.9 hPa | 0 mm | - | - | - |
| 1778062907 | 2.78° C | 79% | 1010.7 hPa | 0 mm | - | - | - |
| 1778062306 | 3.33° C | 78% | 1010.8 hPa | 0 mm | - | - | - |
| 1778061105 | 3.33° C | 77% | 1010.7 hPa | 0 mm | - | - | - |
| 1778060204 | 3.33° C | 77% | 1010.8 hPa | 0 mm | - | - | - |
| 1778059003 | 3.89° C | 77% | 1010.7 hPa | 0 mm | - | - | - |
| 1778057201 | 3.89° C | 78% | 1010.5 hPa | 0 mm | - | - | - |
| 1778056901 | 3.89° C | 78% | 1010.5 hPa | 0 mm | - | - | - |
* Rain latest hour (hover to see other rain measurements)
** Current wind speed in m/s (hover to see current wind gust speed)